Time;durP1;ratioP1;P1;durP2;ratioP2;P2;SDS_P1;SDS_P2;PMS_P1;PMS_P2;Temp;Humidity;BMP_temperature;BMP_pressure;BME280_temperature;BME280_humidity;BME280_pressure;Samples;Min_cycle;Max_cycle;Signal;HPM_P1;HPM_P2
2024/04/20 00:02:04;;;;;;;;;;;;;;;7.28;100.00;99464.59;5368694;26;19933;-84
2024/04/20 00:04:29;;;;;;;;;;;;;;;7.31;100.00;99459.22;5398213;26;19936;-86
2024/04/20 00:06:54;;;;;;;;;;;;;;;7.35;100.00;99458.19;5399471;26;20268;-85
2024/04/20 00:09:20;;;;;;;;;;;;;;;7.42;100.00;99467.59;5399503;26;20003;-90
2024/04/20 00:11:45;;;;;;;;;;;;;;;7.45;100.00;99470.13;5398687;26;19935;-83
2024/04/20 00:14:10;;;;;;;;;;;;;;;7.51;100.00;99473.47;5400081;26;19929;-85
2024/04/20 00:16:35;;;;;;;;;;;;;;;7.52;100.00;99467.28;5368712;26;19936;-89
2024/04/20 00:19:01;;;;;;;;;;;;;;;7.55;100.00;99470.66;5365876;26;19930;-85
2024/04/20 00:21:26;;;;;;;;;;;;;;;7.61;100.00;99466.94;5399373;26;20330;-87
2024/04/20 00:23:51;;;;;;;;;;;;;;;7.64;100.00;99466.81;5356592;26;20363;-83
2024/04/20 00:26:17;;;;;;;;;;;;;;;7.67;100.00;99469.34;5399235;26;20265;-84
2024/04/20 00:28:43;;;;;;;;;;;;;;;7.72;100.00;99474.47;5366259;26;20332;-83
2024/04/20 00:31:08;;;;;;;;;;;;;;;7.75;100.00;99469.94;5398978;26;19935;-83
2024/04/20 05:22:37;;;;;;;;;;;;;;;4.95;100.00;99730.53;5260116;27;19954;-87
2024/04/20 05:25:02;;;;;;;;;;;;;;;4.86;100.00;99727.16;5272877;27;19939;-87
2024/04/20 05:27:27;;;;;;;;;;;;;;;4.79;100.00;99736.06;5260670;27;20282;-87
2024/04/20 05:29:55;;;;;;;;;;;;;;;4.70;100.00;99739.72;5260341;27;19938;-87
2024/04/20 05:32:23;;;;;;;;;;;;;;;4.65;100.00;99748.59;5260728;27;19936;-86
2024/04/20 05:34:48;;;;;;;;;;;;;;;4.64;100.00;99746.88;5258387;27;19939;-85
2024/04/20 05:37:13;;;;;;;;;;;;;;;4.57;100.00;99755.78;5258439;27;19939;-86
2024/04/20 05:39:39;;;;;;;;;;;;;;;4.52;100.00;99759.34;5260295;27;19930;-86
2024/04/20 05:42:04;;;;;;;;;;;;;;;4.47;100.00;99765.56;5260018;27;19940;-86
2024/04/20 05:44:30;;;;;;;;;;;;;;;4.52;100.00;99761.94;5259775;27;19938;-92
2024/04/20 05:46:58;;;;;;;;;;;;;;;4.88;100.00;99769.16;5258660;27;19931;-91
2024/04/20 05:49:23;;;;;;;;;;;;;;;5.55;100.00;99779.13;5258305;27;20486;-86
2024/04/20 05:51:48;;;;;;;;;;;;;;;5.89;100.00;99778.34;5257737;27;20001;-86
2024/04/20 05:54:14;;;;;;;;;;;;;;;6.10;100.00;99777.03;5259737;27;19939;-85
2024/04/20 05:56:40;;;;;;;;;;;;;;;6.27;100.00;99789.72;5259398;27;20266;-88
2024/04/20 05:59:05;;;;;;;;;;;;;;;6.42;100.00;99777.97;5259886;27;19938;-89
2024/04/20 06:01:30;;;;;;;;;;;;;;;6.54;100.00;99783.78;5258275;27;20001;-84
2024/04/20 06:03:57;;;;;;;;;;;;;;;6.66;100.00;99792.25;5259195;27;19947;-85
2024/04/20 06:06:22;;;;;;;;;;;;;;;6.76;100.00;99793.72;5258477;27;20345;-85
2024/04/20 06:08:48;;;;;;;;;;;;;;;6.85;100.00;99787.34;5260317;27;19943;-84
2024/04/20 06:11:13;;;;;;;;;;;;;;;6.97;100.00;99797.53;5260011;27;19938;-85
2024/04/20 06:13:38;;;;;;;;;;;;;;;7.05;100.00;99805.22;5259624;27;19939;-85
2024/04/20 06:16:05;;;;;;;;;;;;;;;7.14;100.00;99801.47;5259255;27;20367;-85
2024/04/20 06:18:30;;;;;;;;;;;;;;;7.21;100.00;99803.91;5259635;27;19931;-86
2024/04/20 06:20:55;;;;;;;;;;;;;;;7.31;100.00;99806.25;5272704;26;19937;-85
2024/04/20 06:23:20;;;;;;;;;;;;;;;7.35;100.00;99800.84;5327220;26;19942;-85
2024/04/20 06:25:47;;;;;;;;;;;;;;;7.41;100.00;99800.66;5311436;26;19939;-86
2024/04/20 06:28:12;;;;;;;;;;;;;;;7.50;100.00;99802.19;5327387;26;19938;-86
2024/04/20 06:30:37;;;;;;;;;;;;;;;7.53;100.00;99807.38;5297125;26;19961;-86
2024/04/20 06:33:03;;;;;;;;;;;;;;;7.57;100.00;99802.84;5327629;26;19999;-86
2024/04/20 06:35:28;;;;;;;;;;;;;;;7.60;100.00;99811.53;5325708;26;19938;-85
2024/04/20 06:37:53;;;;;;;;;;;;;;;7.66;100.00;99817.53;5326846;26;19937;-85
2024/04/20 06:40:19;;;;;;;;;;;;;;;7.70;100.00;99819.16;5297232;26;19938;-85
2024/04/20 06:42:47;;;;;;;;;;;;;;;7.71;100.00;99824.41;5327451;26;20269;-85
2024/04/20 06:45:13;;;;;;;;;;;;;;;7.78;100.00;99822.44;5326684;26;19936;-85
2024/04/20 06:47:38;;;;;;;;;;;;;;;7.79;100.00;99830.28;5326900;26;20274;-85
2024/04/20 06:50:03;;;;;;;;;;;;;;;7.84;100.00;99835.44;5292594;26;20306;-85
2024/04/20 06:52:29;;;;;;;;;;;;;;;7.89;100.00;99832.66;5330232;26;19930;-85
2024/04/20 06:54:54;;;;;;;;;;;;;;;7.89;100.00;99833.50;5330739;26;19930;-86
2024/04/20 06:57:19;;;;;;;;;;;;;;;7.94;100.00;99843.91;5314212;26;19937;-86
2024/04/20 06:59:44;;;;;;;;;;;;;;;7.98;100.00;99840.28;5313233;26;19938;-86
2024/04/20 07:02:10;;;;;;;;;;;;;;;7.98;100.00;99845.56;5330356;26;19930;-86
2024/04/20 07:04:35;;;;;;;;;;;;;;;7.84;100.00;99838.06;5329066;26;19938;-86
2024/04/20 07:07:01;;;;;;;;;;;;;;;6.55;100.00;99843.41;5330158;26;19980;-86
2024/04/20 07:09:26;;;;;;;;;;;;;;;5.99;100.00;99851.78;5329894;26;19941;-86
2024/04/20 07:11:51;;;;;;;;;;;;;;;5.65;100.00;99854.28;5330251;26;19930;-86
2024/04/20 07:14:16;;;;;;;;;;;;;;;5.45;100.00;99852.91;5330386;26;19937;-84
2024/04/20 07:16:48;;;;;;;;;;;;;;;5.36;100.00;99860.13;5329907;26;19954;-85
2024/04/20 07:19:13;;;;;;;;;;;;;;;5.23;100.00;99870.91;5329492;26;19938;-85
2024/04/20 07:21:39;;;;;;;;;;;;;;;5.17;100.00;99868.41;5329730;26;19942;-86
2024/04/20 07:24:05;;;;;;;;;;;;;;;5.05;100.00;99872.09;5299398;26;20325;-85
2024/04/20 07:26:30;;;;;;;;;;;;;;;5.01;100.00;99877.44;5299427;26;19930;-86
2024/04/20 07:28:57;;;;;;;;;;;;;;;4.87;100.00;99882.97;5330958;26;19937;-84
2024/04/20 07:31:22;;;;;;;;;;;;;;;4.86;100.00;99881.22;5329907;26;20262;-83
2024/04/20 07:33:47;;;;;;;;;;;;;;;4.87;100.00;99883.81;5299369;26;19930;-83
2024/04/20 07:36:13;;;;;;;;;;;;;;;4.82;100.00;99883.03;5328943;26;19930;-83
2024/04/20 07:54:09;;;;;;;;;;;;;;;5.36;100.00;99915.31;6021242;21;20389;-81
2024/04/20 07:56:34;;;;;;;;;;;;;;;5.78;100.00;99917.97;5330340;26;19937;-83
2024/04/20 07:58:59;;;;;;;;;;;;;;;6.03;100.00;99921.00;5329861;26;19930;-81
2024/04/20 08:01:25;;;;;;;;;;;;;;;6.24;100.00;99930.16;5329263;26;19938;-84
2024/04/20 08:03:50;;;;;;;;;;;;;;;6.39;100.00;99930.72;5329236;26;19931;-82
2024/04/20 08:06:15;;;;;;;;;;;;;;;6.54;100.00;99931.22;5329561;26;19930;-83
2024/04/20 08:08:40;;;;;;;;;;;;;;;6.66;100.00;99943.19;5328274;26;19953;-82
2024/04/20 08:11:06;;;;;;;;;;;;;;;6.79;100.00;99940.28;5329275;26;19958;-89
2024/04/20 08:13:31;;;;;;;;;;;;;;;6.89;100.00;99933.84;5298732;26;19930;-84
2024/04/20 08:15:56;;;;;;;;;;;;;;;6.97;100.00;99939.78;5329812;26;20000;-81
2024/04/20 08:18:21;;;;;;;;;;;;;;;7.07;100.00;99945.72;5329602;26;20268;-81
2024/04/20 08:20:52;;;;;;;;;;;;;;;7.18;100.00;99945.41;5299123;26;19939;-82
2024/04/20 08:23:19;;;;;;;;;;;;;;;7.27;100.00;99942.53;5327834;26;19989;-81
2024/04/20 08:25:50;;;;;;;;;;;;;;;7.35;100.00;99953.72;5329220;26;20418;-87
2024/04/20 08:28:18;;;;;;;;;;;;;;;7.39;100.00;99944.84;5299338;26;19930;-81
2024/04/20 08:30:43;;;;;;;;;;;;;;;7.46;100.00;99950.81;5329352;26;19941;-85
2024/04/20 08:33:08;;;;;;;;;;;;;;;7.53;100.00;99948.88;5298434;26;19930;-82
2024/04/20 08:35:33;;;;;;;;;;;;;;;7.57;100.00;99955.78;5327989;26;19933;-82
2024/04/20 08:37:59;;;;;;;;;;;;;;;7.60;100.00;99958.34;5327490;26;19936;-82
2024/04/20 08:40:25;;;;;;;;;;;;;;;7.63;100.00;99955.63;5328615;26;20373;-81
2024/04/20 08:42:51;;;;;;;;;;;;;;;7.69;100.00;99965.13;5328566;26;19934;-82
2024/04/20 08:45:19;;;;;;;;;;;;;;;7.72;100.00;99967.69;5329161;26;19930;-82
2024/04/20 08:47:45;;;;;;;;;;;;;;;7.78;100.00;99971.00;5298733;26;20320;-82
2024/04/20 08:50:11;;;;;;;;;;;;;;;7.81;100.00;99970.91;5328408;26;19931;-81
2024/04/20 08:52:38;;;;;;;;;;;;;;;7.86;100.00;99976.06;5328829;26;19930;-82
2024/04/20 08:55:05;;;;;;;;;;;;;;;7.88;100.00;99966.34;5327578;26;20329;-81
2024/04/20 08:57:35;;;;;;;;;;;;;;;7.90;100.00;99976.88;5328620;26;20254;-83
2024/04/20 09:00:01;;;;;;;;;;;;;;;7.95;100.00;99977.59;5327922;26;19931;-81
2024/04/20 09:02:26;;;;;;;;;;;;;;;7.98;100.00;99980.13;5328361;26;19936;-81
2024/04/20 09:04:57;;;;;;;;;;;;;;;8.03;100.00;99983.50;5298035;26;19942;-82
2024/04/20 09:07:23;;;;;;;;;;;;;;;7.86;100.00;99983.13;5328157;26;20266;-82
2024/04/20 09:09:49;;;;;;;;;;;;;;;6.64;100.00;99992.41;5296925;26;19930;-81
2024/04/20 09:12:14;;;;;;;;;;;;;;;6.07;100.00;99998.06;5328449;26;20560;-82
2024/04/20 09:14:39;;;;;;;;;;;;;;;5.77;100.00;100003.88;5311791;26;19931;-81
2024/04/20 09:17:05;;;;;;;;;;;;;;;5.64;100.00;100012.91;5328091;26;19937;-81
2024/04/20 09:19:30;;;;;;;;;;;;;;;5.51;100.00;100009.63;5328161;26;19937;-84
2024/04/20 09:22:16;;;;;;;;;;;;;;;5.36;100.00;100010.78;5298311;26;20265;-81
2024/04/20 09:24:41;;;;;;;;;;;;;;;5.27;100.00;100010.94;5325742;26;20326;-81
2024/04/20 09:27:09;;;;;;;;;;;;;;;5.14;100.00;100023.44;5328286;26;19942;-81
2024/04/20 09:29:37;;;;;;;;;;;;;;;5.07;100.00;100019.16;5327833;26;20324;-81
2024/04/20 09:32:06;;;;;;;;;;;;;;;4.95;100.00;100019.38;5326799;26;19930;-82
2024/04/20 09:34:31;;;;;;;;;;;;;;;4.91;100.00;100019.44;5329336;26;20374;-81
2024/04/20 09:36:56;;;;;;;;;;;;;;;4.76;100.00;100022.28;5327804;26;19941;-82
2024/04/20 09:39:21;;;;;;;;;;;;;;;4.83;100.00;100020.44;5296412;26;19934;-82
2024/04/20 09:41:51;;;;;;;;;;;;;;;4.72;100.00;100025.84;5328557;26;19930;-81
2024/04/20 09:44:18;;;;;;;;;;;;;;;4.66;100.00;100028.53;5327682;26;19930;-83
2024/04/20 09:46:46;;;;;;;;;;;;;;;4.69;100.00;100016.28;5298741;26;19977;-83
2024/04/20 09:49:12;;;;;;;;;;;;;;;4.64;100.00;100027.72;5326180;26;19937;-81
2024/04/20 09:51:45;;;;;;;;;;;;;;;4.60;100.00;100032.16;5327878;26;19931;-81
2024/04/20 09:54:13;;;;;;;;;;;;;;;4.58;100.00;100035.66;5310078;26;19930;-81
2024/04/20 09:56:38;;;;;;;;;;;;;;;4.80;100.00;100034.47;5328293;26;19930;-80
2024/04/20 09:59:05;;;;;;;;;;;;;;;5.48;100.00;100035.97;5296862;26;19930;-81
2024/04/20 10:01:30;;;;;;;;;;;;;;;5.88;100.00;100039.63;5297220;26;19938;-81
2024/04/20 10:03:56;;;;;;;;;;;;;;;6.08;100.00;100032.25;5328398;26;19930;-82
2024/04/20 10:06:22;;;;;;;;;;;;;;;6.30;100.00;100037.03;5328086;26;20412;-81
2024/04/20 10:08:50;;;;;;;;;;;;;;;6.44;100.00;100029.72;5326023;26;19941;-86
2024/04/20 10:11:16;;;;;;;;;;;;;;;6.60;100.00;100035.50;5327117;26;20005;-83
2024/04/20 10:13:43;;;;;;;;;;;;;;;6.72;100.00;100029.09;5327219;26;19938;-83
2024/04/20 10:16:09;;;;;;;;;;;;;;;6.86;100.00;100028.75;5328422;26;19930;-82
2024/04/20 10:18:35;;;;;;;;;;;;;;;6.96;100.00;100027.66;5297650;26;19937;-81
2024/04/20 10:21:00;;;;;;;;;;;;;;;7.05;100.00;100021.28;5297799;26;19930;-83
2024/04/20 10:23:27;;;;;;;;;;;;;;;7.16;100.00;100023.66;5295935;26;19971;-82
2024/04/20 10:25:56;;;;;;;;;;;;;;;7.23;100.00;100014.69;5330187;26;19931;-81
2024/04/20 10:28:28;;;;;;;;;;;;;;;7.33;100.00;100010.91;5313809;26;20362;-82
2024/04/20 10:30:55;;;;;;;;;;;;;;;7.39;100.00;100013.38;5300096;26;19930;-83
2024/04/20 10:33:24;;;;;;;;;;;;;;;7.48;100.00;100014.91;5330765;26;19930;-82
2024/04/20 10:35:58;;;;;;;;;;;;;;;7.54;100.00;100008.63;5299820;26;19999;-80
2024/04/20 10:38:25;;;;;;;;;;;;;;;7.60;100.00;100008.47;5298766;26;19930;-83
2024/04/20 10:40:50;;;;;;;;;;;;;;;7.62;100.00;100007.50;5397688;21;19939;-84
2024/04/20 10:43:20;;;;;;;;;;;;;;;7.67;100.00;100009.16;5333639;26;19929;-82
2024/04/20 10:45:46;;;;;;;;;;;;;;;7.73;100.00;100003.72;5365087;26;19989;-83
2024/04/20 10:48:15;;;;;;;;;;;;;;;7.75;100.00;100002.75;5364558;26;19930;-84
2024/04/20 10:50:43;;;;;;;;;;;;;;;7.80;100.00;100003.50;5364747;26;19937;-79
2024/04/20 10:53:09;;;;;;;;;;;;;;;7.84;100.00;100011.34;5333328;26;19953;-84
2024/04/20 10:55:35;;;;;;;;;;;;;;;7.91;100.00;100024.28;5364356;26;20362;-82
2024/04/20 10:58:00;;;;;;;;;;;;;;;7.97;100.00;100047.88;5364041;26;19929;-81
2024/04/20 11:00:25;;;;;;;;;;;;;;;8.00;100.00;100045.13;5334075;26;20369;-82
2024/04/20 11:02:55;;;;;;;;;;;;;;;8.03;100.00;100048.63;5334031;26;19930;-84
2024/04/20 11:05:21;;;;;;;;;;;;;;;7.06;100.00;100050.22;5364786;26;19930;-82
2024/04/20 11:07:46;;;;;;;;;;;;;;;6.21;100.00;100045.13;5365054;26;19936;-85
2024/04/20 11:10:17;;;;;;;;;;;;;;;5.83;100.00;100050.22;5364383;26;19930;-86
2024/04/20 11:12:48;;;;;;;;;;;;;;;5.53;100.00;100041.16;5364514;26;19930;-89
2024/04/20 11:15:14;;;;;;;;;;;;;;;5.48;100.00;100040.38;5364864;26;19929;-91
2024/04/20 11:17:39;;;;;;;;;;;;;;;5.27;100.00;100026.72;5363838;26;19958;-81
2024/04/20 11:20:05;;;;;;;;;;;;;;;5.14;100.00;100039.19;5364485;26;20290;-82
2024/04/20 11:22:30;;;;;;;;;;;;;;;5.11;100.00;100034.00;5365058;26;19937;-87
2024/04/20 11:24:56;;;;;;;;;;;;;;;4.99;100.00;100035.03;5363346;26;19942;-85
2024/04/20 11:27:21;;;;;;;;;;;;;;;4.96;100.00;100036.84;5364271;26;19999;-83
2024/04/20 11:29:47;;;;;;;;;;;;;;;4.96;100.00;100036.84;5363953;26;19934;-82
2024/04/20 11:32:21;;;;;;;;;;;;;;;4.88;100.00;100031.72;5364450;26;19942;-81
2024/04/20 11:34:48;;;;;;;;;;;;;;;4.87;100.00;100038.75;5363742;26;20036;-82
2024/04/20 11:37:18;;;;;;;;;;;;;;;4.80;100.00;100039.72;5363860;26;19930;-82
2024/04/20 11:39:43;;;;;;;;;;;;;;;4.67;100.00;100032.91;5362543;26;19930;-82
2024/04/20 11:42:08;;;;;;;;;;;;;;;4.66;100.00;100034.69;5366158;26;20003;-92
2024/04/20 11:44:35;;;;;;;;;;;;;;;4.70;100.00;100030.25;5348810;26;19942;-86
2024/04/20 11:47:01;;;;;;;;;;;;;;;4.55;100.00;100021.72;5333966;26;19957;-87
2024/04/20 11:49:26;;;;;;;;;;;;;;;4.58;100.00;100023.44;5364766;26;19930;-84
2024/04/20 11:54:25;;;;;;;;;;;;;;;5.55;100.00;100020.97;5361929;26;19930;-83
2024/04/20 11:56:53;;;;;;;;;;;;;;;5.94;100.00;100029.00;5334263;26;19938;-81
2024/04/20 11:59:19;;;;;;;;;;;;;;;6.18;100.00;100043.44;5363532;26;19930;-88
2024/04/20 12:01:44;;;;;;;;;;;;;;;6.38;100.00;100055.31;5334046;26;19936;-85
2024/04/20 12:04:11;;;;;;;;;;;;;;;6.51;100.00;100062.03;5365628;26;19999;-81
2024/04/20 12:06:37;;;;;;;;;;;;;;;6.67;100.00;100052.91;5363466;26;19957;-81
2024/04/20 12:09:02;;;;;;;;;;;;;;;6.76;100.00;100054.44;5361352;26;19941;-81
2024/04/20 12:11:27;;;;;;;;;;;;;;;6.91;100.00;100056.75;5363892;26;19937;-82
2024/04/20 12:13:53;;;;;;;;;;;;;;;7.01;100.00;100062.66;5333039;26;19929;-82
2024/04/20 12:16:18;;;;;;;;;;;;;;;7.11;100.00;100057.16;5364440;26;19937;-82
2024/04/20 12:18:45;;;;;;;;;;;;;;;7.17;100.00;100049.97;5363858;26;19937;-81
2024/04/20 12:21:13;;;;;;;;;;;;;;;7.24;100.00;100053.31;5364279;26;20269;-81
2024/04/20 12:23:38;;;;;;;;;;;;;;;7.30;100.00;100047.88;5361891;26;19937;-81
2024/04/20 12:26:06;;;;;;;;;;;;;;;7.40;100.00;100044.13;5363860;26;19930;-80
2024/04/20 12:28:31;;;;;;;;;;;;;;;7.48;100.00;100049.19;5363951;26;20671;-81
2024/04/20 12:30:56;;;;;;;;;;;;;;;7.55;100.00;100047.28;5332498;26;19930;-83
2024/04/20 12:33:22;;;;;;;;;;;;;;;7.59;100.00;100035.72;5363088;26;20323;-81
2024/04/20 12:35:47;;;;;;;;;;;;;;;7.67;100.00;100031.09;5333444;26;20322;-82
2024/04/20 12:38:13;;;;;;;;;;;;;;;7.72;100.00;100033.63;5362560;26;19937;-81
2024/04/20 12:40:38;;;;;;;;;;;;;;;7.75;100.00;100036.19;5363254;26;20368;-81
2024/04/20 12:43:03;;;;;;;;;;;;;;;7.78;100.00;100039.59;5363524;26;19930;-81
2024/04/20 12:45:29;;;;;;;;;;;;;;;7.84;100.00;100033.28;5333394;26;19937;-81
2024/04/20 12:47:58;;;;;;;;;;;;;;;7.89;100.00;100017.34;5362590;26;20030;-81
2024/04/20 12:50:24;;;;;;;;;;;;;;;7.91;100.00;100018.16;5363562;26;20372;-81
2024/04/20 12:52:49;;;;;;;;;;;;;;;7.96;100.00;100016.25;5364021;26;19962;-80
2024/04/20 12:55:14;;;;;;;;;;;;;;;7.98;100.00;100006.53;5331192;26;20000;-82
2024/04/20 12:57:40;;;;;;;;;;;;;;;8.00;100.00;100007.34;5332321;26;20288;-81
2024/04/20 13:00:05;;;;;;;;;;;;;;;7.89;100.00;100010.28;5363774;26;19936;-81
2024/04/20 13:02:30;;;;;;;;;;;;;;;6.71;100.00;100017.69;5363067;26;20274;-81
2024/04/20 13:04:56;;;;;;;;;;;;;;;6.11;100.00;100020.75;5363067;26;19930;-80
2024/04/20 13:07:21;;;;;;;;;;;;;;;5.83;100.00;100024.78;5363837;26;19938;-81
2024/04/20 13:09:50;;;;;;;;;;;;;;;5.66;100.00;100023.38;5361873;26;19930;-80
2024/04/20 13:12:16;;;;;;;;;;;;;;;5.52;100.00;100027.16;5332689;26;19936;-81
2024/04/20 13:14:42;;;;;;;;;;;;;;;5.34;100.00;100028.31;5332593;26;19930;-80
2024/04/20 13:17:08;;;;;;;;;;;;;;;5.38;100.00;100029.16;5363335;26;19930;-80
2024/04/20 13:19:33;;;;;;;;;;;;;;;5.30;100.00;100029.28;5363376;26;19937;-80
2024/04/20 13:21:58;;;;;;;;;;;;;;;5.12;100.00;100022.56;5363369;26;19941;-82
2024/04/20 13:24:23;;;;;;;;;;;;;;;5.00;100.00;100017.53;5330776;26;19937;-81
2024/04/20 13:26:49;;;;;;;;;;;;;;;4.88;100.00;100015.97;5362682;26;19930;-84
2024/04/20 13:29:14;;;;;;;;;;;;;;;5.24;100.00;100014.50;5362707;26;19930;-82
2024/04/20 13:31:39;;;;;;;;;;;;;;;5.00;100.00;100009.66;5363032;26;19929;-81
2024/04/20 13:34:05;;;;;;;;;;;;;;;4.87;100.00;100027.38;5332558;26;19937;-81
2024/04/20 13:36:30;;;;;;;;;;;;;;;4.95;100.00;100041.25;5362614;26;19961;-82
2024/04/20 13:38:55;;;;;;;;;;;;;;;4.90;100.00;100048.34;5329265;26;19991;-81
2024/04/20 13:41:20;;;;;;;;;;;;;;;4.89;100.00;100036.94;5361176;26;20518;-80
2024/04/20 13:43:46;;;;;;;;;;;;;;;4.77;100.00;100047.66;5345644;26;20474;-81
2024/04/20 13:46:11;;;;;;;;;;;;;;;4.74;100.00;100055.59;5361712;26;19937;-82
2024/04/20 13:48:37;;;;;;;;;;;;;;;4.69;100.00;100052.13;5361797;26;19930;-82
2024/04/20 13:51:03;;;;;;;;;;;;;;;4.70;100.00;100051.25;5362543;26;19935;-81
2024/04/20 13:53:28;;;;;;;;;;;;;;;4.64;100.00;100046.09;5361333;26;19999;-81
2024/04/20 13:55:57;;;;;;;;;;;;;;;4.57;100.00;100055.81;5360957;26;20277;-82
2024/04/20 13:58:22;;;;;;;;;;;;;;;4.55;100.00;100055.84;5363385;26;19938;-80
2024/04/20 14:00:47;;;;;;;;;;;;;;;4.82;100.00;100058.06;5362205;26;19999;-81
2024/04/20 14:03:13;;;;;;;;;;;;;;;5.53;100.00;100057.78;5360919;26;19937;-81
2024/04/20 14:05:44;;;;;;;;;;;;;;;5.94;100.00;100047.41;5331976;26;19936;-82
2024/04/20 14:08:11;;;;;;;;;;;;;;;6.21;100.00;100048.63;5360953;26;19934;-82
2024/04/20 14:10:37;;;;;;;;;;;;;;;6.34;100.00;100050.09;5362155;26;19930;-82
2024/04/20 14:13:02;;;;;;;;;;;;;;;6.48;100.00;100049.81;5331918;26;19929;-82
2024/04/20 14:15:27;;;;;;;;;;;;;;;6.59;100.00;100040.78;5331950;26;19930;-83
2024/04/20 14:17:53;;;;;;;;;;;;;;;6.68;100.00;100046.72;5331037;26;19930;-81
2024/04/20 14:20:19;;;;;;;;;;;;;;;6.73;100.00;100034.34;5330880;26;19930;-82
2024/04/20 14:22:44;;;;;;;;;;;;;;;6.80;100.00;100032.41;5362667;26;19930;-81
2024/04/20 14:25:09;;;;;;;;;;;;;;;6.83;100.00;100039.38;5330361;26;19939;-82
2024/04/20 14:27:35;;;;;;;;;;;;;;;6.88;100.00;100032.25;5330700;26;19929;-82
2024/04/20 14:30:01;;;;;;;;;;;;;;;6.93;100.00;100033.00;5331346;26;19934;-82
2024/04/20 14:32:28;;;;;;;;;;;;;;;6.98;100.00;100035.53;5360553;26;19953;-86
2024/04/20 14:34:54;;;;;;;;;;;;;;;6.99;100.00;100027.56;5361561;26;19930;-84
2024/04/20 14:37:19;;;;;;;;;;;;;;;7.06;100.00;100033.56;5361311;26;20345;-81
2024/04/20 14:39:44;;;;;;;;;;;;;;;7.07;100.00;100022.97;5360497;26;19930;-84
2024/04/20 14:42:09;;;;;;;;;;;;;;;7.12;100.00;100025.50;5331218;26;19945;-86
2024/04/20 14:44:38;;;;;;;;;;;;;;;7.13;100.00;100029.00;5345557;26;19999;-81
2024/04/20 14:47:03;;;;;;;;;;;;;;;7.19;100.00;100034.13;5330509;26;19930;-81
2024/04/20 14:49:30;;;;;;;;;;;;;;;7.24;100.00;100027.84;5361105;26;20361;-79
2024/04/20 14:51:56;;;;;;;;;;;;;;;7.27;100.00;100021.59;5362018;26;19946;-80
2024/04/20 14:54:21;;;;;;;;;;;;;;;7.30;100.00;100021.53;5360201;26;19930;-81
2024/04/20 14:56:46;;;;;;;;;;;;;;;7.26;100.00;100015.47;5360605;26;19937;-79
2024/04/20 14:59:12;;;;;;;;;;;;;;;7.25;100.00;100023.44;5361062;26;19980;-80
2024/04/20 15:01:37;;;;;;;;;;;;;;;7.23;100.00;100009.44;5360466;26;19999;-85
2024/04/20 15:04:02;;;;;;;;;;;;;;;7.19;100.00;100005.97;5344328;26;20000;-82
2024/04/20 15:06:28;;;;;;;;;;;;;;;7.18;100.00;100001.63;5361683;26;19962;-83
2024/04/20 15:08:53;;;;;;;;;;;;;;;7.19;100.00;99998.09;5329564;26;19965;-83
2024/04/20 15:11:21;;;;;;;;;;;;;;;7.13;100.00;100000.00;5363950;26;19979;-81
2024/04/20 15:13:47;;;;;;;;;;;;;;;7.12;100.00;100006.22;5364746;26;20000;-81
2024/04/20 15:16:13;;;;;;;;;;;;;;;7.09;100.00;100021.16;5331957;26;20366;-82
2024/04/20 15:18:39;;;;;;;;;;;;;;;7.10;100.00;100014.16;5365538;26;19937;-82
2024/04/20 15:21:04;;;;;;;;;;;;;;;7.09;100.00;100029.06;5364845;26;19930;-81
2024/04/20 15:23:29;;;;;;;;;;;;;;;7.15;100.00;100032.44;5363009;26;19931;-82
2024/04/20 15:25:55;;;;;;;;;;;;;;;7.16;100.00;100029.78;5364649;26;20366;-81
2024/04/20 15:28:20;;;;;;;;;;;;;;;7.17;100.00;100020.13;5334365;26;20327;-84
2024/04/20 15:30:45;;;;;;;;;;;;;;;7.17;100.00;100012.22;5364681;26;19930;-85
2024/04/20 15:33:11;;;;;;;;;;;;;;;7.24;100.00;100005.88;5364208;26;20366;-87
2024/04/20 15:35:37;;;;;;;;;;;;;;;7.28;100.00;100002.25;5334224;26;19937;-87
2024/04/20 15:38:03;;;;;;;;;;;;;;;7.35;100.00;100009.09;5363441;26;19937;-86
2024/04/20 15:40:28;;;;;;;;;;;;;;;7.37;100.00;100006.41;5364885;26;19957;-83
2024/04/20 15:43:06;;;;;;;;;;;;;;;;;;;;;
2024/04/20 15:45:31;;;;;;;;;;;;;;;7.47;100.00;100002.66;5365088;26;19930;-82
2024/04/20 15:48:05;;;;;;;;;;;;;;;7.52;100.00;99999.91;5364472;26;19937;-83
2024/04/20 15:50:30;;;;;;;;;;;;;;;7.59;100.00;99994.38;5334754;26;20004;-82
2024/04/20 15:52:55;;;;;;;;;;;;;;;7.64;100.00;100005.69;5362466;26;20578;-83
2024/04/20 15:55:21;;;;;;;;;;;;;;;7.72;100.00;99996.69;5364532;26;19930;-82
2024/04/20 15:57:46;;;;;;;;;;;;;;;7.83;100.00;99999.91;5364523;26;20257;-83
2024/04/20 16:00:11;;;;;;;;;;;;;;;7.92;100.00;100004.91;5363745;26;20354;-82
2024/04/20 16:02:37;;;;;;;;;;;;;;;7.82;100.00;100009.59;5363880;26;20261;-82
2024/04/20 16:05:02;;;;;;;;;;;;;;;6.92;100.00;100010.19;5364813;26;20268;-83
2024/04/20 16:07:28;;;;;;;;;;;;;;;6.62;100.00;100011.75;5364512;26;20000;-85
2024/04/20 16:09:53;;;;;;;;;;;;;;;6.31;100.00;100010.69;5331864;26;19966;-82
2024/04/20 16:12:18;;;;;;;;;;;;;;;6.18;100.00;100020.63;5363913;26;19937;-83
2024/04/20 16:14:43;;;;;;;;;;;;;;;6.11;100.00;100020.75;5364576;26;19930;-80
2024/04/20 16:17:09;;;;;;;;;;;;;;;5.91;100.00;100011.50;5363909;26;19937;-82
2024/04/20 16:19:34;;;;;;;;;;;;;;;5.87;100.00;100016.84;5332533;26;19961;-81
2024/04/20 16:21:59;;;;;;;;;;;;;;;5.83;100.00;100016.91;5361843;26;19949;-82
2024/04/20 16:24:25;;;;;;;;;;;;;;;5.70;100.00;100019.81;5363198;26;19930;-85
2024/04/20 16:26:50;;;;;;;;;;;;;;;5.73;100.00;100015.38;5363890;26;20369;-81
2024/04/20 16:29:21;;;;;;;;;;;;;;;5.67;100.00;100014.63;5332116;26;20405;-82
2024/04/20 16:31:46;;;;;;;;;;;;;;;5.60;100.00;100017.34;5362997;26;19969;-82
2024/04/20 16:34:11;;;;;;;;;;;;;;;5.58;100.00;100019.13;5332592;26;20007;-82
2024/04/20 16:36:37;;;;;;;;;;;;;;;5.58;100.00;100015.66;5333359;26;19932;-82
2024/04/20 16:39:02;;;;;;;;;;;;;;;5.51;100.00;100017.53;5362090;26;19938;-82
2024/04/20 16:41:29;;;;;;;;;;;;;;;5.39;100.00;100025.63;5363122;26;19942;-82
2024/04/20 16:43:55;;;;;;;;;;;;;;;5.32;100.00;100017.00;5363071;26;20257;-82
2024/04/20 16:46:20;;;;;;;;;;;;;;;5.33;100.00;100023.09;5363311;26;19941;-84
2024/04/20 16:48:45;;;;;;;;;;;;;;;5.38;100.00;100030.03;5364314;26;19936;-82
2024/04/20 16:51:14;;;;;;;;;;;;;;;5.32;100.00;100018.75;5363586;26;19930;-82
2024/04/20 16:53:41;;;;;;;;;;;;;;;5.27;100.00;100024.09;5361900;26;19930;-82
2024/04/20 16:56:16;;;;;;;;;;;;;;;5.34;100.00;100023.06;5364221;26;20380;-78
2024/04/20 16:58:42;;;;;;;;;;;;;;;5.21;100.00;100025.03;5363393;26;20302;-81
2024/04/20 17:01:07;;;;;;;;;;;;;;;5.17;100.00;100028.63;5364113;26;19941;-84
2024/04/20 17:03:35;;;;;;;;;;;;;;;5.22;100.00;100028.56;5363519;26;19942;-82
2024/04/20 17:06:03;;;;;;;;;;;;;;;5.12;100.00;100030.44;5363352;26;19930;-81
2024/04/20 17:08:33;;;;;;;;;;;;;;;5.14;100.00;100039.19;5361276;26;19936;-83
2024/04/20 17:11:00;;;;;;;;;;;;;;;5.05;100.00;100020.97;5362657;26;19937;-82
2024/04/20 17:13:41;;;;;;;;;;;;;;;;;;;;;
2024/04/20 17:16:08;;;;;;;;;;;;;;;4.99;100.00;100023.69;5363692;26;19929;-81
2024/04/20 17:18:40;;;;;;;;;;;;;;;5.03;100.00;100028.00;5363559;26;19938;-82
2024/04/20 17:21:08;;;;;;;;;;;;;;;5.08;100.00;100027.00;5364616;26;20264;-83
2024/04/20 17:23:34;;;;;;;;;;;;;;;4.94;100.00;100033.41;5330748;26;20357;-81
2024/04/20 17:26:02;;;;;;;;;;;;;;;4.98;100.00;100037.69;5333000;26;19936;-81
2024/04/20 17:28:27;;;;;;;;;;;;;;;5.07;100.00;100024.41;5362336;26;19949;-81
2024/04/20 17:30:52;;;;;;;;;;;;;;;4.96;100.00;100036.84;5362860;26;19934;-82
2024/04/20 17:33:22;;;;;;;;;;;;;;;4.99;100.00;100039.44;5362821;26;19941;-81
2024/04/20 17:35:48;;;;;;;;;;;;;;;5.09;100.00;100030.53;5362664;26;19937;-82
2024/04/20 17:38:13;;;;;;;;;;;;;;;5.08;100.00;100044.53;5360843;26;19929;-81
2024/04/20 17:40:38;;;;;;;;;;;;;;;4.94;100.00;100041.28;5363087;26;19936;-81
2024/04/20 17:43:03;;;;;;;;;;;;;;;4.98;100.00;100042.94;5363009;26;19942;-82
2024/04/20 17:45:29;;;;;;;;;;;;;;;4.94;100.00;100041.28;5362545;26;19936;-83